createdAt,value
2022-12-25T00:01:38.515Z,11.24
2022-12-25T00:04:05.128Z,11.40
2022-12-25T00:06:31.530Z,11.16
2022-12-25T00:08:57.898Z,10.77
2022-12-25T00:11:24.310Z,11.11
2022-12-25T00:13:50.807Z,10.99
2022-12-25T00:16:19.989Z,11.21
2022-12-25T00:18:46.773Z,10.90
2022-12-25T00:21:14.343Z,11.21
2022-12-25T00:23:41.020Z,11.19
2022-12-25T00:26:10.746Z,10.92
2022-12-25T00:28:37.400Z,11.29
2022-12-25T00:31:08.575Z,10.73
2022-12-25T00:33:37.009Z,11.20
2022-12-25T00:36:06.094Z,11.17
2022-12-25T00:38:34.439Z,10.95
2022-12-25T00:41:07.795Z,11.26
2022-12-25T00:43:34.638Z,11.18
2022-12-25T00:46:03.813Z,11.12
2022-12-25T00:48:31.187Z,11.24
2022-12-25T00:51:00.126Z,11.35
2022-12-25T00:53:27.880Z,11.12
2022-12-25T00:55:57.140Z,11.35
2022-12-25T00:58:24.297Z,11.33
2022-12-25T01:00:51.040Z,11.26
2022-12-25T01:03:18.607Z,10.92
2022-12-25T01:05:55.000Z,10.76
2022-12-25T01:08:21.338Z,11.28
2022-12-25T01:10:54.738Z,11.29
2022-12-25T01:13:21.401Z,11.12
2022-12-25T01:15:47.943Z,11.20
2022-12-25T01:18:14.371Z,10.73
2022-12-25T01:20:40.778Z,11.12
2022-12-25T01:23:07.255Z,11.02
2022-12-25T01:25:33.652Z,11.32
2022-12-25T01:28:00.005Z,11.22
2022-12-25T01:30:26.454Z,11.30
2022-12-25T01:32:52.780Z,11.06
2022-12-25T01:35:20.244Z,10.96
2022-12-25T01:37:46.621Z,11.41
2022-12-25T01:40:13.191Z,11.45
2022-12-25T01:42:39.644Z,11.41
2022-12-25T01:45:40.781Z,11.64
2022-12-25T01:48:12.974Z,11.69
2022-12-25T01:50:43.095Z,11.52
2022-12-25T01:53:09.694Z,11.49
2022-12-25T01:55:37.689Z,11.45
2022-12-25T01:58:04.473Z,11.56
2022-12-25T02:00:31.009Z,11.11
2022-12-25T02:02:58.232Z,11.65
2022-12-25T02:05:29.174Z,11.67
2022-12-25T02:07:57.895Z,11.61
2022-12-25T02:10:24.276Z,11.60
2022-12-25T02:12:51.305Z,11.49
2022-12-25T02:15:20.374Z,11.50
2022-12-25T02:18:03.569Z,11.69
2022-12-25T02:21:07.503Z,11.71
2022-12-25T02:24:27.784Z,11.72
2022-12-25T02:27:20.210Z,11.47
2022-12-25T02:29:55.356Z,11.51
2022-12-25T02:32:46.893Z,11.73
2022-12-25T02:35:23.932Z,11.57
2022-12-25T02:38:33.843Z,11.72
2022-12-25T02:41:07.279Z,11.38
2022-12-25T02:43:57.557Z,11.49
2022-12-25T02:46:43.706Z,11.66
2022-12-25T02:49:33.524Z,11.37
2022-12-25T02:52:28.965Z,11.61
2022-12-25T02:55:21.766Z,11.61
2022-12-25T02:58:09.979Z,11.50
2022-12-25T03:01:02.835Z,11.68
2022-12-25T03:03:51.603Z,11.22
2022-12-25T03:06:38.917Z,11.65
2022-12-25T03:09:27.287Z,11.55
2022-12-25T03:12:02.300Z,11.48
2022-12-25T03:14:47.852Z,11.69
2022-12-25T03:17:14.596Z,11.77
2022-12-25T03:19:59.568Z,11.27
2022-12-25T03:22:49.852Z,11.70
2022-12-25T03:25:36.658Z,11.69
2022-12-25T03:28:04.173Z,11.63
2022-12-25T03:31:07.293Z,11.58
2022-12-25T03:34:10.099Z,11.81
2022-12-25T03:37:14.922Z,11.48
2022-12-25T03:39:57.316Z,11.72
2022-12-25T03:42:37.759Z,11.74
2022-12-25T03:45:47.578Z,11.67
2022-12-25T03:48:34.354Z,11.65
2022-12-25T03:51:26.071Z,11.79
2022-12-25T03:54:19.361Z,11.52
2022-12-25T03:57:05.790Z,11.74
2022-12-25T03:59:50.417Z,11.71
2022-12-25T04:02:35.337Z,11.70
2022-12-25T04:05:20.361Z,11.50
2022-12-25T04:08:05.095Z,11.56
2022-12-25T04:10:49.972Z,11.44
2022-12-25T04:13:34.678Z,11.50
2022-12-25T04:16:19.604Z,11.36
2022-12-25T04:19:04.411Z,11.52
2022-12-25T04:21:49.556Z,11.68
2022-12-25T04:24:34.273Z,11.81
2022-12-25T04:27:19.114Z,11.66
2022-12-25T04:30:03.829Z,11.54
2022-12-25T04:32:48.689Z,11.49
2022-12-25T04:35:34.066Z,11.62
2022-12-25T04:38:00.467Z,11.60
2022-12-25T04:40:26.883Z,11.57
2022-12-25T04:42:53.453Z,11.76
2022-12-25T04:45:19.869Z,11.48
2022-12-25T04:47:46.312Z,11.54
2022-12-25T04:50:12.746Z,11.08
2022-12-25T04:52:40.837Z,11.48
2022-12-25T04:55:08.539Z,11.70
2022-12-25T04:57:35.225Z,11.12
2022-12-25T05:00:01.905Z,11.63
2022-12-25T05:02:28.464Z,11.56
2022-12-25T05:04:54.972Z,11.51
2022-12-25T05:07:21.314Z,11.56
2022-12-25T05:09:47.644Z,11.49
2022-12-25T05:12:14.342Z,11.57
2022-12-25T05:14:41.157Z,11.61
2022-12-25T05:17:08.038Z,11.52
2022-12-25T05:19:34.801Z,11.52
2022-12-25T05:22:01.129Z,11.10
2022-12-25T05:24:27.982Z,11.39
2022-12-25T05:26:54.787Z,10.89
2022-12-25T05:29:21.321Z,11.48
2022-12-25T05:31:47.720Z,11.41
2022-12-25T05:34:14.080Z,11.41
2022-12-25T05:36:40.443Z,11.19
2022-12-25T05:39:06.760Z,11.34
2022-12-25T05:41:34.824Z,11.42
2022-12-25T05:44:01.523Z,11.35
2022-12-25T05:46:27.922Z,11.25
2022-12-25T05:48:54.401Z,11.40
2022-12-25T05:51:20.763Z,11.55
2022-12-25T05:53:47.139Z,11.03
2022-12-25T05:56:13.505Z,11.60
2022-12-25T05:58:40.654Z,11.54
2022-12-25T06:01:19.867Z,11.65
2022-12-25T06:03:46.540Z,11.73
2022-12-25T06:06:13.432Z,11.52
2022-12-25T06:08:40.219Z,11.34
2022-12-25T06:11:07.652Z,11.59
2022-12-25T06:13:35.359Z,11.79
2022-12-25T06:16:06.378Z,11.01
2022-12-25T06:18:35.977Z,11.78
2022-12-25T06:21:07.182Z,11.51
2022-12-25T06:23:33.601Z,11.61
2022-12-25T06:26:00.634Z,11.48
2022-12-25T06:28:26.968Z,11.59
2022-12-25T06:30:53.295Z,11.67
2022-12-25T06:33:19.625Z,11.12
2022-12-25T06:35:45.962Z,11.14
2022-12-25T06:38:12.402Z,11.78
2022-12-25T06:40:38.763Z,11.17
2022-12-25T06:43:05.224Z,11.75
2022-12-25T06:45:31.630Z,11.66
2022-12-25T06:47:58.007Z,11.71
2022-12-25T06:50:24.346Z,11.61
2022-12-25T06:52:50.732Z,11.77
2022-12-25T06:55:17.093Z,11.69
2022-12-25T06:57:43.445Z,11.84
2022-12-25T07:00:10.314Z,11.80
2022-12-25T07:02:38.531Z,11.49
2022-12-25T07:05:05.559Z,11.22
2022-12-25T07:07:31.916Z,11.86
2022-12-25T07:09:58.283Z,11.63
2022-12-25T07:12:24.994Z,11.80
2022-12-25T07:14:54.564Z,11.11
2022-12-25T07:17:21.898Z,11.76
2022-12-25T07:19:49.170Z,11.77
2022-12-25T07:22:16.771Z,11.77
2022-12-25T07:24:43.136Z,11.70
2022-12-25T07:27:09.534Z,11.54
2022-12-25T07:29:35.935Z,11.63
2022-12-25T07:32:02.372Z,11.75
2022-12-25T07:34:28.809Z,11.38
2022-12-25T07:36:55.205Z,11.76
2022-12-25T07:39:21.604Z,11.25
2022-12-25T07:41:48.040Z,11.41
2022-12-25T07:44:14.933Z,11.82
2022-12-25T07:46:41.273Z,11.73
2022-12-25T07:49:07.670Z,11.72
2022-12-25T07:51:34.117Z,11.94
2022-12-25T07:54:00.604Z,11.63
2022-12-25T07:56:27.035Z,12.03
2022-12-25T07:58:53.399Z,11.89
2022-12-25T08:01:22.517Z,12.10
2022-12-25T08:04:00.819Z,11.82
2022-12-25T08:06:31.481Z,11.86
2022-12-25T08:09:03.737Z,11.90
2022-12-25T08:11:30.096Z,11.97
2022-12-25T08:13:56.478Z,12.00
2022-12-25T08:16:23.163Z,11.95
2022-12-25T08:18:49.570Z,12.10
2022-12-25T08:21:16.330Z,11.96
2022-12-25T08:23:45.168Z,11.69
2022-12-25T08:26:14.580Z,12.06
2022-12-25T08:28:41.229Z,12.11
2022-12-25T08:31:13.247Z,12.01
2022-12-25T08:33:39.951Z,12.07
2022-12-25T08:36:09.256Z,12.35
2022-12-25T08:38:35.981Z,12.29
2022-12-25T08:41:02.507Z,12.34
2022-12-25T08:43:28.938Z,12.28
2022-12-25T08:45:55.480Z,11.61
2022-12-25T08:48:22.819Z,11.99
2022-12-25T08:50:51.804Z,12.34
2022-12-25T08:53:18.554Z,12.01
2022-12-25T08:55:45.208Z,12.16
2022-12-25T08:58:11.920Z,12.23
2022-12-25T09:00:38.270Z,12.01
2022-12-25T09:03:04.774Z,11.69
2022-12-25T09:05:31.286Z,11.59
2022-12-25T09:07:57.646Z,12.01
2022-12-25T09:10:26.986Z,11.44
2022-12-25T09:12:53.317Z,11.93
2022-12-25T09:15:19.896Z,11.94
2022-12-25T09:17:46.385Z,11.75
2022-12-25T09:20:12.859Z,11.61
2022-12-25T09:22:42.297Z,11.60
2022-12-25T09:25:09.265Z,11.63
2022-12-25T09:27:35.813Z,11.63
2022-12-25T09:30:02.204Z,11.43
2022-12-25T09:32:28.552Z,11.66
2022-12-25T09:34:54.906Z,11.57
2022-12-25T09:37:21.383Z,11.73
2022-12-25T09:39:47.879Z,11.02
2022-12-25T09:42:19.033Z,11.80
2022-12-25T09:44:57.660Z,11.53
2022-12-25T09:47:29.020Z,11.70
2022-12-25T09:50:10.493Z,11.63
2022-12-25T09:52:43.610Z,11.64
2022-12-25T09:55:20.720Z,11.70
2022-12-25T09:57:53.751Z,11.85
2022-12-25T10:00:23.192Z,11.78
2022-12-25T10:03:09.990Z,11.71
2022-12-25T10:06:10.027Z,11.91
2022-12-25T10:08:57.850Z,11.93
2022-12-25T10:11:36.492Z,11.92
2022-12-25T10:14:32.762Z,11.79
2022-12-25T10:17:02.146Z,12.01
2022-12-25T10:19:34.687Z,11.97
2022-12-25T10:22:11.200Z,11.94
2022-12-25T10:24:48.285Z,11.83
2022-12-25T10:27:31.775Z,11.88
2022-12-25T10:29:59.323Z,11.94
2022-12-25T10:32:25.670Z,12.07
2022-12-25T10:34:52.169Z,11.45
2022-12-25T10:37:18.965Z,11.76
2022-12-25T10:39:46.985Z,11.59
2022-12-25T10:42:31.014Z,11.97
2022-12-25T10:45:03.145Z,11.53
2022-12-25T10:47:32.937Z,11.58
2022-12-25T10:50:01.194Z,12.12
2022-12-25T10:52:28.764Z,11.90
2022-12-25T10:54:55.538Z,12.19
2022-12-25T10:57:24.901Z,12.19
2022-12-25T10:59:56.456Z,11.98
2022-12-25T11:02:35.071Z,12.21
2022-12-25T11:05:06.119Z,11.89
2022-12-25T11:07:34.883Z,12.17
2022-12-25T11:10:06.210Z,12.22
2022-12-25T11:12:38.010Z,11.81
2022-12-25T11:15:42.618Z,12.32
2022-12-25T11:18:21.455Z,12.15
2022-12-25T11:20:58.984Z,12.15
2022-12-25T11:23:27.784Z,12.24
2022-12-25T11:26:04.977Z,12.42
2022-12-25T11:28:33.911Z,12.41
2022-12-25T11:31:22.083Z,11.95
2022-12-25T11:34:04.492Z,12.43
2022-12-25T11:36:48.912Z,12.59
2022-12-25T11:39:28.616Z,12.59
2022-12-25T11:42:03.924Z,12.28
2022-12-25T11:44:41.952Z,12.63
2022-12-25T11:47:19.077Z,12.48
2022-12-25T11:50:20.902Z,12.44
2022-12-25T11:52:48.331Z,12.46
2022-12-25T11:55:39.736Z,12.44
2022-12-25T11:58:18.634Z,12.48
2022-12-25T12:00:47.356Z,12.54
2022-12-25T12:03:21.883Z,12.58
2022-12-25T12:05:59.796Z,12.51
2022-12-25T12:08:26.166Z,12.58
2022-12-25T12:11:15.645Z,12.58
2022-12-25T12:13:53.989Z,12.60
2022-12-25T12:16:20.652Z,12.45
2022-12-25T12:18:50.569Z,12.59
2022-12-25T12:21:30.087Z,12.05
2022-12-25T12:24:26.777Z,12.16
2022-12-25T12:27:06.276Z,12.62
2022-12-25T12:29:40.466Z,12.60
2022-12-25T12:32:40.330Z,12.57
2022-12-25T12:35:10.433Z,12.70
2022-12-25T12:37:39.835Z,12.29
2022-12-25T12:40:20.769Z,12.27
2022-12-25T12:42:50.681Z,12.32
2022-12-25T12:45:20.672Z,12.34
2022-12-25T12:47:49.204Z,12.92
2022-12-25T12:50:37.726Z,12.95
2022-12-25T12:53:22.172Z,12.90
2022-12-25T12:55:49.020Z,12.49
2022-12-25T12:58:34.084Z,12.94
2022-12-25T13:01:17.167Z,12.72
2022-12-25T13:04:06.207Z,12.99
2022-12-25T13:07:17.788Z,12.52
2022-12-25T13:10:08.845Z,13.08
2022-12-25T13:12:35.417Z,13.13
2022-12-25T13:15:01.885Z,13.04
2022-12-25T13:17:28.998Z,13.18
2022-12-25T13:19:58.144Z,13.12
2022-12-25T13:22:30.518Z,12.71
2022-12-25T13:24:59.988Z,12.83
2022-12-25T13:27:28.914Z,13.05
2022-12-25T13:29:55.855Z,12.86
2022-12-25T13:32:26.084Z,13.18
2022-12-25T13:34:54.028Z,12.81
2022-12-25T13:37:25.883Z,13.04
2022-12-25T13:39:56.179Z,12.89
2022-12-25T13:42:26.294Z,12.92
2022-12-25T13:44:56.876Z,12.81
2022-12-25T13:47:37.549Z,12.82
2022-12-25T13:50:31.614Z,12.90
2022-12-25T13:53:11.021Z,12.93
2022-12-25T13:55:37.766Z,12.94
2022-12-25T13:58:15.365Z,12.99
2022-12-25T14:00:53.099Z,13.08
2022-12-25T14:03:21.850Z,13.16
2022-12-25T14:06:01.817Z,13.11
2022-12-25T14:08:33.540Z,12.94
2022-12-25T14:11:06.134Z,12.99
2022-12-25T14:13:37.481Z,13.10
2022-12-25T14:16:04.680Z,12.70
2022-12-25T14:18:31.319Z,12.83
2022-12-25T14:21:14.113Z,12.67
2022-12-25T14:23:49.268Z,13.18
2022-12-25T14:26:18.310Z,13.20
2022-12-25T14:29:17.604Z,13.03
2022-12-25T14:31:47.168Z,12.79
2022-12-25T14:34:25.003Z,13.01
2022-12-25T14:36:53.323Z,13.04
2022-12-25T14:39:38.221Z,12.90
2022-12-25T14:42:19.238Z,12.57
2022-12-25T14:44:59.474Z,12.65
2022-12-25T14:47:26.158Z,13.03
2022-12-25T14:49:54.496Z,12.89
2022-12-25T14:52:33.953Z,13.06
2022-12-25T14:55:03.690Z,13.04
2022-12-25T14:57:37.786Z,13.03
2022-12-25T15:00:24.558Z,13.08
2022-12-25T15:02:54.153Z,12.83
2022-12-25T15:05:29.670Z,13.07
2022-12-25T15:08:01.740Z,12.98
2022-12-25T15:10:58.845Z,12.84
2022-12-25T15:13:17.792Z,12.97
2022-12-25T15:16:10.184Z,12.86
2022-12-25T15:18:40.106Z,12.83
2022-12-25T15:21:09.477Z,12.93
2022-12-25T15:23:35.907Z,13.02
2022-12-25T15:26:02.275Z,12.67
2022-12-25T15:28:28.606Z,12.82
2022-12-25T15:30:55.033Z,12.88
2022-12-25T15:33:21.456Z,13.02
2022-12-25T15:35:48.779Z,12.55
2022-12-25T15:38:15.179Z,13.03
2022-12-25T15:40:42.507Z,13.13
2022-12-25T15:43:38.812Z,13.06
2022-12-25T15:45:59.369Z,12.69
2022-12-25T15:48:25.931Z,12.76
2022-12-25T15:50:52.246Z,13.15
2022-12-25T15:53:18.651Z,12.95
2022-12-25T15:55:44.998Z,13.02
2022-12-25T15:58:13.037Z,13.13
2022-12-25T16:00:39.551Z,13.40
2022-12-25T16:03:06.143Z,13.09
2022-12-25T16:05:32.619Z,13.39
2022-12-25T16:07:59.074Z,13.39
2022-12-25T16:10:25.506Z,13.34
2022-12-25T16:12:51.846Z,13.29
2022-12-25T16:15:18.191Z,13.06
2022-12-25T16:17:44.678Z,13.32
2022-12-25T16:20:11.395Z,13.35
2022-12-25T16:22:40.650Z,12.88
2022-12-25T16:25:13.235Z,13.39
2022-12-25T16:27:39.650Z,13.32
2022-12-25T16:30:06.795Z,13.35
2022-12-25T16:32:33.300Z,12.72
2022-12-25T16:34:59.661Z,12.82
2022-12-25T16:37:27.135Z,13.27
2022-12-25T16:39:53.612Z,13.16
2022-12-25T16:42:20.057Z,13.30
2022-12-25T16:44:46.411Z,12.79
2022-12-25T16:47:12.881Z,13.33
2022-12-25T16:49:39.257Z,12.81
2022-12-25T16:52:05.655Z,13.03
2022-12-25T16:54:31.976Z,12.65
2022-12-25T16:56:58.297Z,13.29
2022-12-25T16:59:24.788Z,13.16
2022-12-25T17:01:51.212Z,13.30
2022-12-25T17:04:17.661Z,13.32
2022-12-25T17:06:44.077Z,13.27
2022-12-25T17:09:10.586Z,13.32
2022-12-25T17:11:37.205Z,13.47
2022-12-25T17:14:04.477Z,13.06
2022-12-25T17:16:35.976Z,13.59
2022-12-25T17:19:09.552Z,13.54
2022-12-25T17:21:38.021Z,13.65
2022-12-25T17:24:05.191Z,13.61
2022-12-25T17:26:32.728Z,13.67
2022-12-25T17:28:59.464Z,13.83
2022-12-25T17:31:26.062Z,13.23
2022-12-25T17:33:52.450Z,13.38
2022-12-25T17:36:20.916Z,13.66
2022-12-25T17:38:48.836Z,13.90
2022-12-25T17:41:17.190Z,13.66
2022-12-25T17:43:45.559Z,13.91
2022-12-25T17:46:14.172Z,13.72
2022-12-25T17:48:40.628Z,13.58
2022-12-25T17:51:12.967Z,13.80
2022-12-25T17:53:41.574Z,13.46
2022-12-25T17:56:09.722Z,13.68
2022-12-25T17:58:37.630Z,13.77
2022-12-25T18:01:14.050Z,13.45
2022-12-25T18:03:46.248Z,13.79
2022-12-25T18:06:15.602Z,13.70
2022-12-25T18:08:43.067Z,13.93
2022-12-25T18:11:15.004Z,13.92
2022-12-25T18:13:44.613Z,13.77
2022-12-25T18:16:12.678Z,13.99
2022-12-25T18:18:39.692Z,13.93
2022-12-25T18:21:06.609Z,13.84
2022-12-25T18:23:33.840Z,13.77
2022-12-25T18:26:06.013Z,13.99
2022-12-25T18:28:33.059Z,13.60
2022-12-25T18:30:59.487Z,13.91
2022-12-25T18:33:25.906Z,13.94
2022-12-25T18:35:58.130Z,13.95
2022-12-25T18:38:24.816Z,13.83
2022-12-25T18:40:51.307Z,13.80
2022-12-25T18:43:17.759Z,13.80
2022-12-25T18:45:44.394Z,14.20
2022-12-25T18:48:10.865Z,14.08
2022-12-25T18:50:39.340Z,14.31
2022-12-25T18:53:08.000Z,14.04
2022-12-25T18:55:34.399Z,13.74
2022-12-25T18:58:01.083Z,13.96
2022-12-25T19:00:27.960Z,13.72
2022-12-25T19:02:58.891Z,14.05
2022-12-25T19:05:25.794Z,14.06
2022-12-25T19:07:52.295Z,14.00
2022-12-25T19:10:18.708Z,14.12
2022-12-25T19:12:45.142Z,13.89
2022-12-25T19:15:11.665Z,13.67
2022-12-25T19:17:38.129Z,14.17
2022-12-25T19:20:06.061Z,13.66
2022-12-25T19:22:32.485Z,13.99
2022-12-25T19:24:58.902Z,13.77
2022-12-25T19:27:25.417Z,14.05
2022-12-25T19:29:51.798Z,13.90
2022-12-25T19:32:18.113Z,14.15
2022-12-25T19:34:44.591Z,13.67
2022-12-25T19:37:11.022Z,13.57
2022-12-25T19:39:37.517Z,14.07
2022-12-25T19:42:03.994Z,13.96
2022-12-25T19:44:30.328Z,13.47
2022-12-25T19:46:56.751Z,14.14
2022-12-25T19:49:23.292Z,13.89
2022-12-25T19:51:49.783Z,14.11
2022-12-25T19:54:18.713Z,14.02
2022-12-25T19:56:46.353Z,14.21
2022-12-25T19:59:14.415Z,14.02
2022-12-25T20:01:47.451Z,13.90
2022-12-25T20:04:14.830Z,14.16
2022-12-25T20:06:42.561Z,14.05
2022-12-25T20:09:12.635Z,13.88
2022-12-25T20:11:39.603Z,14.07
2022-12-25T20:14:07.891Z,14.21
2022-12-25T20:16:37.431Z,14.13
2022-12-25T20:19:04.087Z,14.06
2022-12-25T20:21:30.614Z,14.19
2022-12-25T20:23:57.483Z,14.00
2022-12-25T20:26:27.689Z,14.10
2022-12-25T20:28:54.312Z,14.30
2022-12-25T20:31:23.931Z,14.28
2022-12-25T20:33:50.368Z,13.62
2022-12-25T20:36:18.354Z,14.15
2022-12-25T20:38:44.774Z,14.26
2022-12-25T20:41:30.578Z,14.29
2022-12-25T20:43:57.553Z,14.29
2022-12-25T20:46:24.840Z,14.30
2022-12-25T20:48:52.632Z,14.20
2022-12-25T20:51:21.751Z,14.23
2022-12-25T20:53:48.460Z,14.26
2022-12-25T20:56:20.868Z,14.24
2022-12-25T20:58:47.473Z,14.33
2022-12-25T21:01:16.997Z,14.46
2022-12-25T21:03:44.091Z,13.93
2022-12-25T21:06:11.222Z,13.93
2022-12-25T21:08:38.637Z,14.46
2022-12-25T21:11:05.548Z,14.56
2022-12-25T21:13:37.955Z,14.67
2022-12-25T21:16:06.361Z,14.59
2022-12-25T21:18:33.151Z,14.48
2022-12-25T21:21:05.647Z,14.32
2022-12-25T21:23:32.562Z,14.35
2022-12-25T21:25:58.926Z,14.26
2022-12-25T21:28:30.044Z,14.26
2022-12-25T21:31:04.993Z,14.28
2022-12-25T21:33:50.147Z,14.04
2022-12-25T21:36:17.335Z,14.13
2022-12-25T21:38:45.395Z,14.09
2022-12-25T21:41:13.845Z,14.17
2022-12-25T21:43:40.657Z,14.27
2022-12-25T21:46:09.375Z,14.51
2022-12-25T21:48:37.113Z,14.51
2022-12-25T21:51:25.108Z,14.43
2022-12-25T21:53:51.738Z,14.08
2022-12-25T21:56:18.419Z,14.02
2022-12-25T21:58:46.537Z,14.21
2022-12-25T22:01:16.705Z,14.36
2022-12-25T22:03:44.177Z,14.40
2022-12-25T22:06:29.569Z,14.19
2022-12-25T22:08:56.906Z,14.41
2022-12-25T22:11:45.496Z,14.04
2022-12-25T22:14:51.144Z,13.67
2022-12-25T22:17:42.396Z,14.40
2022-12-25T22:20:11.628Z,14.33
2022-12-25T22:22:38.007Z,14.25
2022-12-25T22:25:11.670Z,14.25
2022-12-25T22:27:39.816Z,13.83
2022-12-25T22:30:15.166Z,14.12
2022-12-25T22:32:42.091Z,14.29
2022-12-25T22:35:09.268Z,14.00
2022-12-25T22:37:36.022Z,14.15
2022-12-25T22:40:03.938Z,14.09
2022-12-25T22:42:30.552Z,14.25
2022-12-25T22:44:56.985Z,14.06
2022-12-25T22:47:23.652Z,14.18
2022-12-25T22:49:49.979Z,14.14
2022-12-25T22:52:16.527Z,14.25
2022-12-25T22:54:42.869Z,14.26
2022-12-25T22:57:09.176Z,14.19
2022-12-25T22:59:35.613Z,14.15
2022-12-25T23:02:02.157Z,14.22
2022-12-25T23:04:29.265Z,14.30
2022-12-25T23:06:56.199Z,14.00
2022-12-25T23:09:27.545Z,13.59
2022-12-25T23:11:58.411Z,13.95
2022-12-25T23:14:41.773Z,14.11
2022-12-25T23:17:31.801Z,14.03
2022-12-25T23:20:18.259Z,13.94
2022-12-25T23:23:03.906Z,14.10
2022-12-25T23:25:49.143Z,14.13
2022-12-25T23:28:35.470Z,14.25
2022-12-25T23:31:02.021Z,14.15
2022-12-25T23:33:28.572Z,13.83
2022-12-25T23:35:55.004Z,14.10
2022-12-25T23:38:21.424Z,13.98
2022-12-25T23:40:47.766Z,14.22
2022-12-25T23:43:14.301Z,14.00
2022-12-25T23:45:40.680Z,13.96
2022-12-25T23:48:07.034Z,13.94
2022-12-25T23:50:33.892Z,14.10
2022-12-25T23:53:00.716Z,14.19
2022-12-25T23:55:27.179Z,14.16
2022-12-25T23:57:53.505Z,14.21
